createdAt,value
2022-07-29T00:01:59.529Z,23.90
2022-07-29T00:07:02.851Z,23.90
2022-07-29T00:12:06.322Z,23.80
2022-07-29T00:17:12.653Z,23.80
2022-07-29T00:22:22.154Z,23.70
2022-07-29T00:27:25.032Z,23.60
2022-07-29T00:32:29.265Z,23.50
2022-07-29T00:37:32.108Z,23.50
2022-07-29T00:42:51.013Z,23.40
2022-07-29T00:47:53.812Z,23.40
2022-07-29T00:52:56.886Z,23.30
2022-07-29T00:58:00.847Z,23.30
2022-07-29T01:03:04.618Z,23.20
2022-07-29T01:08:08.899Z,23.20
2022-07-29T01:13:13.009Z,23.20
2022-07-29T01:18:35.110Z,23.10
2022-07-29T01:24:28.300Z,23.00
2022-07-29T01:29:42.637Z,23.00
2022-07-29T01:35:02.953Z,23.00
2022-07-29T01:40:12.120Z,22.90
2022-07-29T01:46:01.899Z,22.80
2022-07-29T01:51:28.531Z,22.70
2022-07-29T01:56:34.749Z,22.60
2022-07-29T02:01:40.763Z,22.60
2022-07-29T02:06:45.464Z,22.60
2022-07-29T02:11:54.473Z,22.50
2022-07-29T02:16:59.431Z,22.50
2022-07-29T02:22:03.067Z,22.50
2022-07-29T02:27:06.044Z,22.50
2022-07-29T02:32:12.246Z,22.40
2022-07-29T02:37:18.079Z,22.30
2022-07-29T02:42:25.052Z,22.30
2022-07-29T02:47:41.525Z,22.30
2022-07-29T02:53:13.122Z,22.30
2022-07-29T02:58:38.584Z,22.20
2022-07-29T03:03:45.712Z,22.10
2022-07-29T03:08:50.544Z,22.10
2022-07-29T03:13:54.012Z,22.00
2022-07-29T03:18:57.275Z,21.90
2022-07-29T03:24:00.122Z,21.90
2022-07-29T03:29:03.111Z,21.80
2022-07-29T03:34:05.957Z,21.60
2022-07-29T03:39:11.904Z,21.50
2022-07-29T03:44:16.877Z,21.40
2022-07-29T03:49:22.881Z,21.40
2022-07-29T03:54:25.835Z,21.40
2022-07-29T03:59:31.534Z,21.40
2022-07-29T04:04:36.252Z,21.40
2022-07-29T04:09:39.241Z,21.50
2022-07-29T04:14:44.856Z,21.50
2022-07-29T04:19:47.703Z,21.60
2022-07-29T04:24:50.506Z,21.60
2022-07-29T04:29:56.744Z,21.70
2022-07-29T04:35:00.400Z,21.70
2022-07-29T04:40:04.615Z,21.80
2022-07-29T04:45:08.009Z,21.90
2022-07-29T04:50:11.671Z,22.00
2022-07-29T04:55:14.525Z,22.10
2022-07-29T05:00:17.953Z,22.20
2022-07-29T05:05:20.848Z,22.20
2022-07-29T05:10:24.146Z,22.30
2022-07-29T05:15:26.964Z,22.40
2022-07-29T05:20:31.605Z,22.50
2022-07-29T05:25:43.433Z,22.60
2022-07-29T05:30:48.160Z,22.80
2022-07-29T05:35:50.992Z,22.90
2022-07-29T05:40:53.758Z,23.10
2022-07-29T05:45:57.335Z,23.30
2022-07-29T05:51:00.273Z,23.50
2022-07-29T05:56:06.664Z,23.80
2022-07-29T06:01:09.461Z,24.00
2022-07-29T06:06:12.407Z,24.20
2022-07-29T06:11:15.205Z,24.40
2022-07-29T06:16:28.885Z,24.70
2022-07-29T06:21:33.402Z,25.00
2022-07-29T06:26:39.741Z,25.20
2022-07-29T06:31:43.006Z,25.50
2022-07-29T06:36:46.022Z,25.70
2022-07-29T06:41:51.572Z,26.00
2022-07-29T06:46:55.771Z,26.20
2022-07-29T06:51:58.649Z,26.40
2022-07-29T06:57:01.408Z,26.50
2022-07-29T07:02:04.412Z,26.70
2022-07-29T07:07:07.276Z,26.90
2022-07-29T07:12:10.400Z,27.00
2022-07-29T07:17:13.122Z,27.10
2022-07-29T07:22:15.985Z,27.20
2022-07-29T07:27:18.938Z,27.20
2022-07-29T07:32:21.817Z,27.40
2022-07-29T07:37:25.841Z,27.60
2022-07-29T07:42:29.136Z,27.70
2022-07-29T07:47:32.147Z,27.80
2022-07-29T07:52:51.714Z,28.00
2022-07-29T07:57:55.860Z,28.20
2022-07-29T08:02:58.755Z,28.40
2022-07-29T08:08:01.621Z,28.70
2022-07-29T08:13:07.641Z,28.80
2022-07-29T08:18:10.797Z,29.00
2022-07-29T08:23:13.581Z,29.10
2022-07-29T08:28:16.801Z,29.30
2022-07-29T08:33:19.643Z,29.40
2022-07-29T08:38:22.668Z,29.70
2022-07-29T08:43:26.645Z,29.90
2022-07-29T08:48:29.465Z,30.20
2022-07-29T08:53:33.238Z,30.40
2022-07-29T08:58:36.851Z,30.50
2022-07-29T09:03:42.566Z,30.60
2022-07-29T09:08:47.631Z,30.80
2022-07-29T09:13:50.941Z,31.10
2022-07-29T09:18:53.817Z,31.20
2022-07-29T09:24:12.765Z,31.40
2022-07-29T09:29:19.977Z,31.50
2022-07-29T09:34:29.515Z,31.60
2022-07-29T09:39:38.233Z,31.80
2022-07-29T09:44:50.334Z,32.00
2022-07-29T09:49:59.366Z,32.20
2022-07-29T09:55:17.847Z,32.40
2022-07-29T10:00:24.017Z,32.50
2022-07-29T10:05:36.618Z,32.60
2022-07-29T10:10:43.142Z,32.60
2022-07-29T10:15:47.366Z,32.80
2022-07-29T10:20:51.104Z,32.90
2022-07-29T10:25:54.338Z,33.10
2022-07-29T10:31:06.444Z,33.30
2022-07-29T10:37:06.462Z,33.40
2022-07-29T10:42:34.359Z,33.80
2022-07-29T10:47:38.137Z,34.10
2022-07-29T10:53:04.913Z,34.10
2022-07-29T10:58:24.695Z,34.10
2022-07-29T11:03:49.266Z,34.20
2022-07-29T11:09:35.309Z,34.10
2022-07-29T11:14:53.239Z,33.90
2022-07-29T11:20:45.786Z,34.00
2022-07-29T11:26:28.315Z,33.80
2022-07-29T11:31:49.440Z,33.50
2022-07-29T11:37:13.662Z,33.40
2022-07-29T11:42:28.276Z,33.40
2022-07-29T11:47:39.700Z,33.90
2022-07-29T11:52:49.891Z,34.20
2022-07-29T11:58:03.961Z,34.50
2022-07-29T12:03:10.451Z,34.90
2022-07-29T12:08:20.910Z,35.10
2022-07-29T12:13:37.408Z,35.30
2022-07-29T12:18:40.864Z,35.60
2022-07-29T12:23:55.288Z,35.60
2022-07-29T12:28:58.336Z,35.60
2022-07-29T12:34:05.369Z,35.70
2022-07-29T12:39:10.135Z,35.60
2022-07-29T12:44:13.122Z,35.50
2022-07-29T12:49:24.092Z,35.90
2022-07-29T12:54:27.255Z,36.40
2022-07-29T12:59:30.138Z,36.80
2022-07-29T13:04:36.625Z,36.90
2022-07-29T13:09:42.944Z,36.90
2022-07-29T13:14:48.997Z,37.00
2022-07-29T13:19:54.484Z,37.00
2022-07-29T13:25:07.635Z,36.90
2022-07-29T13:30:11.675Z,36.60
2022-07-29T13:35:14.615Z,36.60
2022-07-29T13:40:17.396Z,36.80
2022-07-29T13:45:20.275Z,36.90
2022-07-29T13:50:23.142Z,36.70
2022-07-29T13:55:26.671Z,36.20
2022-07-29T14:00:29.635Z,35.80
2022-07-29T14:05:32.470Z,35.90
2022-07-29T14:10:35.252Z,36.00
2022-07-29T14:15:39.392Z,36.20
2022-07-29T14:20:42.453Z,36.30
2022-07-29T14:25:45.302Z,36.60
2022-07-29T14:30:48.782Z,36.90
2022-07-29T14:35:51.829Z,37.10
2022-07-29T14:40:54.624Z,37.20
2022-07-29T14:46:02.881Z,37.30
2022-07-29T14:51:08.815Z,37.30
2022-07-29T14:56:35.427Z,37.30
2022-07-29T15:01:34.627Z,37.40
2022-07-29T15:06:37.507Z,37.50
2022-07-29T15:11:40.323Z,37.60
2022-07-29T15:16:46.486Z,37.70
2022-07-29T15:21:51.183Z,37.80
2022-07-29T15:26:54.739Z,37.90
2022-07-29T15:31:58.078Z,37.80
2022-07-29T15:37:01.669Z,37.50
2022-07-29T15:42:04.977Z,36.90
2022-07-29T15:47:07.920Z,36.40
2022-07-29T15:52:11.331Z,36.20
2022-07-29T15:57:15.402Z,36.30
2022-07-29T16:02:18.233Z,36.40
2022-07-29T16:07:21.255Z,36.60
2022-07-29T16:12:26.930Z,36.70
2022-07-29T16:17:29.895Z,36.70
2022-07-29T16:22:32.801Z,36.50
2022-07-29T16:27:37.771Z,36.30
2022-07-29T16:32:41.100Z,36.00
2022-07-29T16:37:43.943Z,35.60
2022-07-29T16:42:47.474Z,35.30
2022-07-29T16:47:50.623Z,35.00
2022-07-29T16:52:54.208Z,34.80
2022-07-29T16:57:57.828Z,34.70
2022-07-29T17:03:00.664Z,34.80
2022-07-29T17:08:03.698Z,34.70
2022-07-29T17:13:06.526Z,34.60
2022-07-29T17:18:13.246Z,34.40
2022-07-29T17:23:15.986Z,34.10
2022-07-29T17:28:18.886Z,33.80
2022-07-29T17:33:21.670Z,33.50
2022-07-29T17:38:24.505Z,33.20
2022-07-29T17:43:27.265Z,32.80
2022-07-29T17:48:30.212Z,32.50
2022-07-29T17:53:33.096Z,32.20
2022-07-29T17:58:35.975Z,32.00
2022-07-29T18:03:38.879Z,31.80
2022-07-29T18:08:41.908Z,31.50
2022-07-29T18:13:44.881Z,31.30
2022-07-29T18:18:47.873Z,31.10
2022-07-29T18:23:52.703Z,30.80
2022-07-29T18:28:55.450Z,30.60
2022-07-29T18:34:00.085Z,30.40
2022-07-29T18:39:03.320Z,30.30
2022-07-29T18:44:06.124Z,30.10
2022-07-29T18:49:09.329Z,29.90
2022-07-29T18:54:12.940Z,29.70
2022-07-29T18:59:17.236Z,29.60
2022-07-29T19:04:20.034Z,29.40
2022-07-29T19:09:22.906Z,29.40
2022-07-29T19:14:25.817Z,29.30
2022-07-29T19:19:28.682Z,29.20
2022-07-29T19:24:31.455Z,29.20
2022-07-29T19:29:35.355Z,29.10
2022-07-29T19:34:38.402Z,29.00
2022-07-29T19:39:41.229Z,28.90
2022-07-29T19:44:44.065Z,28.70
2022-07-29T19:49:46.854Z,28.70
2022-07-29T19:54:49.700Z,28.50
2022-07-29T19:59:52.972Z,28.40
2022-07-29T20:04:55.780Z,28.30
2022-07-29T20:09:58.748Z,28.20
2022-07-29T20:15:02.017Z,28.10
2022-07-29T20:20:06.253Z,28.10
2022-07-29T20:25:10.111Z,28.10
2022-07-29T20:30:14.220Z,28.00
2022-07-29T20:35:17.047Z,28.00
2022-07-29T20:40:23.260Z,28.00
2022-07-29T20:45:26.506Z,28.00
2022-07-29T20:50:29.249Z,27.80
2022-07-29T20:55:32.938Z,27.80
2022-07-29T21:00:35.920Z,27.70
2022-07-29T21:05:39.005Z,27.70
2022-07-29T21:10:45.838Z,27.60
2022-07-29T21:15:50.212Z,27.50
2022-07-29T21:20:55.523Z,27.40
2022-07-29T21:25:58.992Z,27.30
2022-07-29T21:31:06.833Z,27.20
2022-07-29T21:36:46.124Z,27.00
2022-07-29T21:41:35.314Z,26.90
2022-07-29T21:46:38.369Z,26.80
2022-07-29T21:51:41.408Z,26.70
2022-07-29T21:56:44.243Z,26.60
2022-07-29T22:01:54.185Z,26.60
2022-07-29T22:06:58.811Z,26.50
2022-07-29T22:12:02.711Z,26.50
2022-07-29T22:17:05.559Z,26.40
2022-07-29T22:22:08.599Z,26.40
2022-07-29T22:27:11.791Z,26.30
2022-07-29T22:32:14.594Z,26.30
2022-07-29T22:37:17.634Z,26.20
2022-07-29T22:42:20.474Z,26.00
2022-07-29T22:47:38.712Z,26.00
2022-07-29T22:52:47.157Z,25.80
2022-07-29T22:57:50.430Z,25.70
2022-07-29T23:02:53.180Z,25.60
2022-07-29T23:07:56.113Z,25.50
2022-07-29T23:12:58.937Z,25.50
2022-07-29T23:18:01.841Z,25.40
2022-07-29T23:23:04.979Z,25.30
2022-07-29T23:28:11.631Z,25.30
2022-07-29T23:33:16.159Z,25.30
2022-07-29T23:38:19.035Z,25.30
2022-07-29T23:43:21.743Z,25.20
2022-07-29T23:48:24.798Z,25.10
2022-07-29T23:53:28.604Z,25.00
2022-07-29T23:58:32.023Z,24.90
